createdAt,value
2022-10-31T00:00:33.490Z,0.00
2022-10-31T00:01:33.380Z,0.00
2022-10-31T00:02:33.421Z,0.00
2022-10-31T00:03:33.360Z,0.00
2022-10-31T00:04:33.347Z,0.00
2022-10-31T00:05:33.322Z,0.00
2022-10-31T00:06:33.325Z,0.00
2022-10-31T00:07:33.303Z,0.00
2022-10-31T00:08:33.309Z,0.00
2022-10-31T00:09:33.268Z,0.00
2022-10-31T00:10:33.310Z,0.00
2022-10-31T00:11:33.240Z,0.00
2022-10-31T00:12:33.249Z,0.00
2022-10-31T00:13:33.212Z,0.00
2022-10-31T00:14:33.206Z,0.00
2022-10-31T00:15:33.201Z,0.00
2022-10-31T00:16:33.190Z,0.00
2022-10-31T00:17:33.187Z,0.00
2022-10-31T00:18:33.155Z,0.00
2022-10-31T00:19:33.127Z,0.00
2022-10-31T00:20:33.125Z,0.00
2022-10-31T00:21:33.114Z,0.00
2022-10-31T00:22:33.126Z,0.00
2022-10-31T00:23:33.096Z,0.00
2022-10-31T00:24:33.097Z,0.00
2022-10-31T00:25:33.056Z,0.00
2022-10-31T00:26:33.038Z,0.00
2022-10-31T00:27:33.049Z,0.00
2022-10-31T00:28:33.241Z,0.00
2022-10-31T00:29:33.005Z,0.00
2022-10-31T00:30:32.984Z,0.00
2022-10-31T00:31:32.975Z,0.00
2022-10-31T00:32:32.979Z,0.00
2022-10-31T00:33:32.946Z,0.00
2022-10-31T00:34:32.951Z,0.00
2022-10-31T00:35:32.936Z,0.00
2022-10-31T00:36:32.905Z,0.00
2022-10-31T00:37:32.904Z,0.00
2022-10-31T00:38:32.874Z,0.00
2022-10-31T00:39:32.878Z,0.00
2022-10-31T00:40:32.846Z,0.00
2022-10-31T00:41:32.866Z,0.00
2022-10-31T00:42:32.889Z,0.00
2022-10-31T00:43:32.805Z,0.00
2022-10-31T00:44:32.808Z,0.00
2022-10-31T00:45:32.792Z,0.00
2022-10-31T00:46:32.765Z,0.00
2022-10-31T00:47:32.812Z,0.00
2022-10-31T00:48:32.752Z,0.00
2022-10-31T00:49:32.739Z,0.00
2022-10-31T00:50:32.726Z,0.00
2022-10-31T00:51:32.713Z,0.00
2022-10-31T00:52:32.703Z,0.00
2022-10-31T00:53:32.731Z,0.00
2022-10-31T00:54:32.668Z,0.00
2022-10-31T00:55:32.680Z,0.00
2022-10-31T00:56:32.644Z,0.00
2022-10-31T00:57:32.649Z,0.00
2022-10-31T00:58:32.605Z,0.00
2022-10-31T00:59:32.602Z,0.00
2022-10-31T01:00:32.596Z,0.00
2022-10-31T01:01:32.679Z,0.00
2022-10-31T01:02:32.628Z,0.00
2022-10-31T01:03:32.553Z,0.00
2022-10-31T01:04:32.548Z,0.00
2022-10-31T01:05:32.523Z,0.00
2022-10-31T01:06:32.512Z,0.00
2022-10-31T01:07:32.496Z,0.00
2022-10-31T01:08:32.483Z,0.00
2022-10-31T01:09:32.492Z,0.00
2022-10-31T01:10:32.444Z,0.00
2022-10-31T01:11:32.457Z,0.00
2022-10-31T01:12:32.424Z,0.00
2022-10-31T01:13:32.433Z,0.00
2022-10-31T01:14:32.394Z,0.00
2022-10-31T01:15:32.403Z,0.00
2022-10-31T01:16:32.380Z,0.00
2022-10-31T01:17:32.352Z,0.00
2022-10-31T01:18:32.341Z,0.00
2022-10-31T01:19:32.333Z,0.00
2022-10-31T01:20:32.313Z,0.00
2022-10-31T01:21:32.312Z,0.00
2022-10-31T01:22:32.313Z,0.00
2022-10-31T01:23:32.299Z,0.00
2022-10-31T01:24:32.262Z,0.00
2022-10-31T01:25:32.282Z,0.00
2022-10-31T01:26:32.262Z,0.00
2022-10-31T01:27:32.228Z,0.00
2022-10-31T01:28:32.231Z,0.00
2022-10-31T01:29:32.223Z,0.00
2022-10-31T01:30:32.171Z,0.00
2022-10-31T01:31:32.183Z,0.00
2022-10-31T01:32:32.158Z,0.00
2022-10-31T01:33:32.139Z,0.00
2022-10-31T01:34:32.138Z,0.00
2022-10-31T01:35:32.132Z,0.00
2022-10-31T01:36:32.104Z,0.00
2022-10-31T01:37:32.090Z,0.00
2022-10-31T01:38:32.089Z,0.00
2022-10-31T01:39:32.072Z,0.00
2022-10-31T01:40:32.059Z,0.00
2022-10-31T01:41:32.039Z,0.00
2022-10-31T01:42:32.018Z,0.00
2022-10-31T01:43:32.011Z,0.00
2022-10-31T01:44:31.997Z,0.00
2022-10-31T01:45:31.999Z,0.00
2022-10-31T01:46:31.956Z,0.00
2022-10-31T01:47:31.957Z,0.00
2022-10-31T01:48:31.935Z,0.00
2022-10-31T01:49:31.927Z,0.00
2022-10-31T01:50:31.940Z,0.00
2022-10-31T01:51:31.923Z,0.00
2022-10-31T01:52:31.890Z,0.00
2022-10-31T01:53:31.885Z,0.00
2022-10-31T01:54:31.868Z,0.00
2022-10-31T01:55:31.869Z,0.00
2022-10-31T01:56:31.846Z,0.00
2022-10-31T01:57:31.827Z,0.00
2022-10-31T01:58:31.820Z,0.00
2022-10-31T01:59:31.829Z,0.00
2022-10-31T02:00:31.805Z,0.00
2022-10-31T02:01:31.847Z,0.00
2022-10-31T02:02:31.872Z,0.00
2022-10-31T02:03:31.747Z,0.00
2022-10-31T02:04:31.736Z,0.00
2022-10-31T02:05:31.760Z,0.00
2022-10-31T02:06:31.747Z,0.00
2022-10-31T02:07:31.685Z,0.00
2022-10-31T02:08:31.695Z,0.00
2022-10-31T02:09:31.658Z,0.00
2022-10-31T02:10:31.668Z,0.00
2022-10-31T02:11:31.629Z,0.00
2022-10-31T02:12:31.624Z,0.00
2022-10-31T02:13:31.616Z,0.00
2022-10-31T02:14:31.592Z,0.00
2022-10-31T02:15:31.593Z,0.00
2022-10-31T02:16:31.566Z,0.00
2022-10-31T02:17:31.556Z,0.00
2022-10-31T02:18:31.558Z,0.00
2022-10-31T02:19:31.533Z,0.00
2022-10-31T02:20:31.530Z,0.00
2022-10-31T02:21:31.496Z,0.00
2022-10-31T02:22:31.494Z,0.00
2022-10-31T02:23:31.463Z,0.00
2022-10-31T02:24:31.491Z,0.00
2022-10-31T02:25:31.511Z,0.00
2022-10-31T02:26:31.454Z,0.00
2022-10-31T02:27:31.414Z,0.00
2022-10-31T02:28:31.413Z,0.00
2022-10-31T02:29:31.387Z,0.00
2022-10-31T02:30:31.392Z,0.00
2022-10-31T02:31:31.379Z,0.00
2022-10-31T02:32:31.355Z,0.00
2022-10-31T02:33:31.344Z,0.00
2022-10-31T02:34:31.331Z,0.00
2022-10-31T02:35:31.330Z,0.00
2022-10-31T02:36:31.304Z,0.00
2022-10-31T02:37:31.288Z,0.00
2022-10-31T02:38:31.291Z,0.00
2022-10-31T02:39:31.302Z,0.00
2022-10-31T02:40:31.280Z,0.00
2022-10-31T02:41:31.237Z,0.00
2022-10-31T02:42:31.210Z,0.00
2022-10-31T02:43:31.210Z,0.00
2022-10-31T02:44:31.235Z,0.00
2022-10-31T02:45:31.206Z,0.00
2022-10-31T02:46:31.190Z,0.00
2022-10-31T02:47:31.153Z,0.00
2022-10-31T02:48:31.141Z,0.00
2022-10-31T02:49:31.130Z,0.00
2022-10-31T02:50:31.122Z,0.00
2022-10-31T02:51:31.090Z,0.00
2022-10-31T02:52:31.093Z,0.00
2022-10-31T02:53:31.062Z,0.00
2022-10-31T02:54:31.071Z,0.00
2022-10-31T02:55:31.040Z,0.00
2022-10-31T02:56:31.040Z,0.00
2022-10-31T02:57:31.028Z,0.00
2022-10-31T02:58:31.011Z,0.00
2022-10-31T02:59:31.039Z,0.00
2022-10-31T03:00:30.989Z,0.00
2022-10-31T03:01:31.023Z,0.00
2022-10-31T03:02:31.037Z,0.00
2022-10-31T03:03:30.952Z,0.00
2022-10-31T03:04:30.947Z,0.00
2022-10-31T03:05:30.920Z,0.00
2022-10-31T03:06:30.902Z,0.00
2022-10-31T03:07:30.897Z,0.00
2022-10-31T03:08:30.880Z,0.00
2022-10-31T03:09:30.891Z,0.00
2022-10-31T03:10:30.850Z,0.00
2022-10-31T03:11:30.828Z,0.00
2022-10-31T03:12:30.818Z,0.00
2022-10-31T03:13:30.807Z,0.00
2022-10-31T03:14:30.818Z,0.00
2022-10-31T03:15:30.782Z,0.00
2022-10-31T03:16:30.770Z,0.00
2022-10-31T03:17:30.749Z,0.00
2022-10-31T03:18:30.740Z,0.00
2022-10-31T03:19:30.726Z,0.00
2022-10-31T03:20:30.725Z,0.00
2022-10-31T03:21:30.699Z,0.00
2022-10-31T03:22:30.686Z,0.00
2022-10-31T03:23:30.678Z,0.00
2022-10-31T03:24:30.696Z,0.00
2022-10-31T03:25:30.666Z,0.00
2022-10-31T03:26:30.627Z,0.00
2022-10-31T03:27:30.637Z,0.00
2022-10-31T03:28:30.616Z,0.00
2022-10-31T03:29:30.607Z,0.00
2022-10-31T03:30:30.587Z,0.00
2022-10-31T03:31:30.625Z,0.00
2022-10-31T03:32:30.547Z,0.00
2022-10-31T03:33:30.535Z,0.00
2022-10-31T03:34:30.538Z,0.00
2022-10-31T03:35:30.507Z,0.00
2022-10-31T03:36:30.504Z,0.00
2022-10-31T03:37:30.484Z,0.00
2022-10-31T03:38:30.519Z,0.00
2022-10-31T03:39:30.468Z,0.00
2022-10-31T03:40:30.455Z,0.00
2022-10-31T03:41:30.441Z,0.00
2022-10-31T03:42:30.422Z,0.00
2022-10-31T03:43:30.431Z,0.00
2022-10-31T03:44:30.398Z,0.00
2022-10-31T03:45:30.396Z,0.00
2022-10-31T03:46:30.383Z,0.00
2022-10-31T03:47:30.345Z,0.00
2022-10-31T03:48:30.365Z,0.00
2022-10-31T03:49:30.324Z,0.00
2022-10-31T03:50:30.335Z,0.00
2022-10-31T03:51:30.307Z,0.00
2022-10-31T03:52:30.293Z,0.00
2022-10-31T03:53:30.285Z,0.00
2022-10-31T03:54:30.264Z,0.00
2022-10-31T03:55:30.242Z,0.00
2022-10-31T03:56:30.252Z,0.00
2022-10-31T03:57:30.240Z,0.00
2022-10-31T03:58:30.224Z,0.00
2022-10-31T03:59:30.194Z,0.00
2022-10-31T04:00:30.201Z,0.00
2022-10-31T04:01:30.298Z,0.00
2022-10-31T04:02:30.267Z,0.00
2022-10-31T04:03:30.155Z,0.00
2022-10-31T04:04:30.130Z,0.00
2022-10-31T04:05:30.113Z,0.00
2022-10-31T04:06:30.114Z,0.00
2022-10-31T04:07:30.091Z,0.00
2022-10-31T04:08:30.103Z,0.00
2022-10-31T04:09:30.080Z,0.00
2022-10-31T04:10:32.980Z,0.00
2022-10-31T04:11:30.045Z,0.00
2022-10-31T04:12:30.031Z,0.00
2022-10-31T04:13:30.024Z,0.00
2022-10-31T04:14:30.005Z,0.00
2022-10-31T04:15:29.983Z,0.00
2022-10-31T04:16:29.974Z,0.00
2022-10-31T04:17:29.979Z,0.00
2022-10-31T04:18:29.972Z,0.00
2022-10-31T04:19:29.941Z,0.00
2022-10-31T04:20:29.966Z,0.00
2022-10-31T04:21:29.905Z,0.00
2022-10-31T04:22:29.899Z,0.00
2022-10-31T04:23:29.888Z,0.00
2022-10-31T04:24:29.869Z,0.00
2022-10-31T04:25:29.848Z,0.00
2022-10-31T04:26:29.859Z,0.00
2022-10-31T04:27:29.821Z,0.00
2022-10-31T04:28:29.822Z,0.00
2022-10-31T04:29:29.791Z,0.00
2022-10-31T04:30:29.792Z,0.00
2022-10-31T04:31:29.777Z,0.00
2022-10-31T04:32:29.802Z,0.00
2022-10-31T04:33:29.750Z,0.00
2022-10-31T04:34:29.740Z,0.00
2022-10-31T04:35:29.727Z,0.00
2022-10-31T04:36:29.719Z,0.00
2022-10-31T04:37:29.715Z,0.00
2022-10-31T04:38:29.695Z,0.00
2022-10-31T04:39:29.688Z,0.00
2022-10-31T04:40:29.668Z,0.00
2022-10-31T04:41:29.642Z,0.00
2022-10-31T04:42:29.653Z,0.00
2022-10-31T04:43:29.628Z,0.00
2022-10-31T04:44:29.634Z,0.00
2022-10-31T04:45:29.587Z,0.00
2022-10-31T04:46:29.587Z,0.00
2022-10-31T04:47:29.568Z,0.00
2022-10-31T04:48:29.556Z,0.00
2022-10-31T04:49:29.539Z,0.00
2022-10-31T04:50:29.541Z,0.00
2022-10-31T04:51:29.517Z,0.00
2022-10-31T04:52:29.521Z,0.00
2022-10-31T04:53:29.480Z,0.00
2022-10-31T04:54:29.502Z,0.00
2022-10-31T04:55:29.447Z,0.00
2022-10-31T04:56:29.448Z,0.00
2022-10-31T04:57:29.451Z,0.00
2022-10-31T04:58:29.453Z,0.00
2022-10-31T04:59:29.407Z,0.00
2022-10-31T05:00:29.396Z,0.00
2022-10-31T05:01:29.438Z,0.00
2022-10-31T05:02:29.417Z,0.00
2022-10-31T05:03:29.346Z,0.00
2022-10-31T05:04:29.336Z,0.00
2022-10-31T05:05:29.315Z,0.00
2022-10-31T05:06:29.314Z,0.00
2022-10-31T05:07:29.298Z,0.00
2022-10-31T05:08:29.294Z,0.00
2022-10-31T05:09:29.269Z,0.00
2022-10-31T05:10:29.256Z,0.00
2022-10-31T05:11:29.239Z,0.00
2022-10-31T05:12:29.268Z,0.00
2022-10-31T05:13:29.208Z,0.00
2022-10-31T05:14:29.197Z,0.00
2022-10-31T05:15:29.184Z,0.00
2022-10-31T05:16:29.175Z,0.00
2022-10-31T05:17:29.176Z,0.00
2022-10-31T05:18:29.201Z,0.00
2022-10-31T05:19:29.170Z,0.00
2022-10-31T05:20:29.133Z,0.00
2022-10-31T05:21:29.114Z,0.00
2022-10-31T05:22:29.108Z,0.00
2022-10-31T05:23:29.077Z,0.00
2022-10-31T05:24:29.074Z,0.00
2022-10-31T05:25:29.068Z,0.00
2022-10-31T05:26:29.060Z,4.00
2022-10-31T05:27:29.052Z,4.00
2022-10-31T05:28:29.015Z,0.00
2022-10-31T05:29:29.005Z,4.00
2022-10-31T05:30:28.992Z,0.00
2022-10-31T05:31:28.975Z,4.00
2022-10-31T05:32:29.010Z,4.00
2022-10-31T05:33:28.961Z,4.00
2022-10-31T05:34:28.961Z,4.00
2022-10-31T05:35:28.923Z,4.00
2022-10-31T05:36:28.921Z,8.00
2022-10-31T05:37:28.902Z,8.00
2022-10-31T05:38:28.923Z,8.00
2022-10-31T05:39:28.872Z,12.00
2022-10-31T05:40:28.897Z,12.00
2022-10-31T05:41:28.873Z,16.00
2022-10-31T05:42:28.834Z,16.00
2022-10-31T05:43:28.822Z,20.00
2022-10-31T05:44:28.806Z,20.00
2022-10-31T05:45:28.792Z,28.00
2022-10-31T05:46:28.877Z,28.00
2022-10-31T05:47:28.780Z,36.00
2022-10-31T05:48:28.762Z,40.00
2022-10-31T05:49:28.733Z,44.00
2022-10-31T05:50:28.741Z,52.00
2022-10-31T05:51:28.730Z,60.00
2022-10-31T05:52:28.721Z,68.00
2022-10-31T05:53:28.694Z,76.00
2022-10-31T05:54:28.679Z,84.00
2022-10-31T05:55:28.686Z,92.00
2022-10-31T05:56:28.660Z,100.00
2022-10-31T05:57:28.633Z,112.00
2022-10-31T05:58:28.625Z,124.00
2022-10-31T05:59:28.601Z,140.00
2022-10-31T06:00:28.631Z,152.00
2022-10-31T06:01:28.633Z,164.00
2022-10-31T06:02:28.579Z,176.00
2022-10-31T06:03:28.561Z,192.00
2022-10-31T06:04:28.587Z,212.00
2022-10-31T06:05:28.521Z,232.00
2022-10-31T06:06:28.547Z,248.00
2022-10-31T06:07:28.499Z,268.00
2022-10-31T06:08:28.546Z,288.00
2022-10-31T06:09:28.468Z,312.00
2022-10-31T06:10:28.478Z,336.00
2022-10-31T06:11:28.446Z,364.00
2022-10-31T06:12:30.220Z,388.00
2022-10-31T06:13:28.418Z,420.00
2022-10-31T06:14:28.413Z,448.00
2022-10-31T06:15:28.407Z,480.00
2022-10-31T06:16:28.390Z,508.00
2022-10-31T06:17:28.370Z,544.00
2022-10-31T06:18:28.367Z,576.00
2022-10-31T06:19:28.376Z,608.00
2022-10-31T06:20:28.337Z,644.00
2022-10-31T06:21:28.338Z,680.00
2022-10-31T06:22:28.311Z,716.00
2022-10-31T06:23:28.289Z,760.00
2022-10-31T06:24:28.300Z,796.00
2022-10-31T06:25:28.320Z,840.00
2022-10-31T06:26:28.255Z,884.00
2022-10-31T06:27:28.243Z,932.00
2022-10-31T06:28:28.219Z,972.00
2022-10-31T06:29:28.216Z,1020.00
2022-10-31T06:30:28.207Z,1064.00
2022-10-31T06:31:28.196Z,1100.00
2022-10-31T06:32:28.210Z,1144.00
2022-10-31T06:33:28.163Z,1184.00
2022-10-31T06:34:28.145Z,1232.00
2022-10-31T06:35:28.145Z,1280.00
2022-10-31T06:37:28.113Z,1360.00
2022-10-31T06:38:28.083Z,1388.00
2022-10-31T06:39:28.083Z,1420.00
2022-10-31T06:40:28.099Z,1436.00
2022-10-31T06:41:28.194Z,1424.00
2022-10-31T06:42:28.034Z,1416.00
2022-10-31T06:43:28.044Z,1416.00
2022-10-31T06:44:28.016Z,1408.00
2022-10-31T06:45:28.028Z,1388.00
2022-10-31T06:46:28.006Z,1408.00
2022-10-31T06:47:27.978Z,1456.00
2022-10-31T06:48:28.106Z,1500.00
2022-10-31T06:49:27.954Z,1540.00
2022-10-31T06:50:27.955Z,1596.00
2022-10-31T06:51:27.930Z,1676.00
2022-10-31T06:52:27.915Z,1744.00
2022-10-31T06:53:27.905Z,1796.00
2022-10-31T06:54:27.901Z,1844.00
2022-10-31T06:55:27.893Z,1868.00
2022-10-31T06:56:27.870Z,1888.00
2022-10-31T06:57:27.832Z,1924.00
2022-10-31T06:58:27.822Z,1944.00
2022-10-31T06:59:27.823Z,1948.00
2022-10-31T07:00:27.810Z,1956.00
2022-10-31T07:01:27.874Z,1956.00
2022-10-31T07:02:27.840Z,1964.00
2022-10-31T07:03:27.760Z,1968.00
2022-10-31T07:04:27.754Z,1980.00
2022-10-31T07:05:27.742Z,2004.00
2022-10-31T07:06:27.762Z,2024.00
2022-10-31T07:07:27.722Z,2036.00
2022-10-31T07:08:27.700Z,2052.00
2022-10-31T07:09:27.684Z,2076.00
2022-10-31T07:10:27.691Z,2100.00
2022-10-31T07:11:27.658Z,2136.00
2022-10-31T07:12:27.652Z,2148.00
2022-10-31T07:13:27.643Z,2188.00
2022-10-31T07:14:27.627Z,2348.00
2022-10-31T07:15:27.627Z,2396.00
2022-10-31T07:16:27.605Z,2284.00
2022-10-31T07:17:30.077Z,2316.00
2022-10-31T07:18:27.602Z,2368.00
2022-10-31T07:19:27.571Z,2468.00
2022-10-31T07:20:27.579Z,2504.00
2022-10-31T07:21:27.526Z,2432.00
2022-10-31T07:22:27.504Z,2420.00
2022-10-31T07:23:27.489Z,2472.00
2022-10-31T07:24:27.491Z,2508.00
2022-10-31T07:25:27.482Z,2536.00
2022-10-31T07:26:27.451Z,2572.00
2022-10-31T07:27:27.450Z,2664.00
2022-10-31T07:28:27.444Z,2840.00
2022-10-31T07:29:27.410Z,2784.00
2022-10-31T07:30:27.443Z,2740.00
2022-10-31T07:31:27.396Z,2772.00
2022-10-31T07:32:27.373Z,2808.00
2022-10-31T07:33:27.389Z,2840.00
2022-10-31T07:34:27.363Z,2868.00
2022-10-31T07:35:27.334Z,2932.00
2022-10-31T07:36:27.334Z,2960.00
2022-10-31T07:37:27.328Z,3020.00
2022-10-31T07:38:27.301Z,3084.00
2022-10-31T07:39:27.280Z,3084.00
2022-10-31T07:40:27.301Z,3092.00
2022-10-31T07:41:27.277Z,3096.00
2022-10-31T07:42:27.229Z,3920.00
2022-10-31T07:43:27.265Z,5440.00
2022-10-31T07:44:27.207Z,6300.00
2022-10-31T07:45:27.212Z,6656.00
2022-10-31T07:46:27.194Z,11000.00
2022-10-31T07:47:27.179Z,12384.00
2022-10-31T07:48:27.188Z,9424.00
2022-10-31T07:49:27.156Z,6724.00
2022-10-31T07:50:27.128Z,8264.00
2022-10-31T07:51:27.135Z,11224.00
2022-10-31T07:52:27.115Z,6856.00
2022-10-31T07:53:27.136Z,6424.00
2022-10-31T07:54:27.065Z,16544.00
2022-10-31T07:55:27.067Z,21664.00
2022-10-31T07:56:27.055Z,12916.00
2022-10-31T07:57:31.943Z,11352.00
2022-10-31T07:58:28.028Z,13456.00
2022-10-31T07:59:27.019Z,9620.00
2022-10-31T08:00:27.035Z,9000.00
2022-10-31T08:01:26.989Z,21984.00
2022-10-31T08:02:26.974Z,35168.00
2022-10-31T08:03:27.016Z,25536.00
2022-10-31T08:04:26.949Z,21536.00
2022-10-31T08:05:26.936Z,26560.00
2022-10-31T08:06:26.915Z,19872.00
2022-10-31T08:07:26.926Z,15232.00
2022-10-31T08:08:26.931Z,28096.00
2022-10-31T08:09:26.889Z,36288.00
2022-10-31T08:10:26.867Z,22880.00
2022-10-31T08:11:26.876Z,21344.00
2022-10-31T08:12:26.828Z,23232.00
2022-10-31T08:13:26.858Z,15072.00
2022-10-31T08:14:26.818Z,17952.00
2022-10-31T08:15:26.807Z,32288.00
2022-10-31T08:16:26.786Z,29280.00
2022-10-31T08:17:26.766Z,20160.00
2022-10-31T08:18:26.820Z,21088.00
2022-10-31T08:19:26.738Z,18880.00
2022-10-31T08:20:26.726Z,16608.00
2022-10-31T08:21:26.717Z,29728.00
2022-10-31T08:22:26.706Z,30880.00
2022-10-31T08:23:26.721Z,19456.00
2022-10-31T08:24:26.718Z,21760.00
2022-10-31T08:25:26.678Z,18816.00
2022-10-31T08:26:26.653Z,15776.00
2022-10-31T08:27:26.645Z,28256.00
2022-10-31T08:28:26.628Z,25920.00
2022-10-31T08:29:26.619Z,16864.00
2022-10-31T08:30:26.606Z,18432.00
2022-10-31T08:31:31.983Z,13920.00
2022-10-31T08:32:27.568Z,20256.00
2022-10-31T08:33:26.571Z,28704.00
2022-10-31T08:34:26.591Z,20736.00
2022-10-31T08:35:26.538Z,21824.00
2022-10-31T08:36:26.509Z,18624.00
2022-10-31T08:37:26.521Z,14048.00
2022-10-31T08:38:26.539Z,22496.00
2022-10-31T08:39:26.481Z,20480.00
2022-10-31T08:40:26.460Z,20352.00
2022-10-31T08:41:26.499Z,19136.00
2022-10-31T08:42:26.430Z,13888.00
2022-10-31T08:43:26.451Z,20512.00
2022-10-31T08:44:26.410Z,19936.00
2022-10-31T08:45:26.409Z,22208.00
2022-10-31T08:46:26.426Z,20544.00
2022-10-31T08:47:26.379Z,14112.00
2022-10-31T08:48:26.373Z,19488.00
2022-10-31T08:49:26.370Z,19648.00
2022-10-31T08:50:26.322Z,24992.00
2022-10-31T08:51:26.322Z,19168.00
2022-10-31T08:52:51.037Z,15904.00
2022-10-31T08:53:27.304Z,17600.00
2022-10-31T08:54:26.289Z,21952.00
2022-10-31T08:55:26.268Z,28800.00
2022-10-31T08:56:26.250Z,18592.00
2022-10-31T08:57:26.231Z,18976.00
2022-10-31T08:58:26.233Z,16640.00
2022-10-31T08:59:26.215Z,18496.00
2022-10-31T09:00:26.200Z,19200.00
2022-10-31T09:01:26.259Z,17120.00
2022-10-31T09:02:26.228Z,12400.00
2022-10-31T09:03:26.190Z,15808.00
2022-10-31T09:04:26.163Z,22368.00
2022-10-31T09:05:26.147Z,21056.00
2022-10-31T09:06:26.169Z,17568.00
2022-10-31T09:07:26.115Z,16896.00
2022-10-31T09:08:26.126Z,17952.00
2022-10-31T09:09:26.093Z,20864.00
2022-10-31T09:10:26.076Z,22688.00
2022-10-31T09:11:26.063Z,13408.00
2022-10-31T09:12:26.037Z,10004.00
2022-10-31T09:13:28.185Z,5628.00
2022-10-31T09:14:26.011Z,5244.00
2022-10-31T09:15:26.011Z,5016.00
2022-10-31T09:16:25.983Z,4784.00
2022-10-31T09:17:26.005Z,4660.00
2022-10-31T09:18:25.953Z,4544.00
2022-10-31T09:19:25.945Z,4460.00
2022-10-31T09:20:25.930Z,4448.00
2022-10-31T09:21:25.921Z,4488.00
2022-10-31T09:22:25.931Z,4512.00
2022-10-31T09:23:25.896Z,4008.00
2022-10-31T09:24:25.895Z,4216.00
2022-10-31T09:25:25.866Z,4252.00
2022-10-31T09:26:25.863Z,4408.00
2022-10-31T09:27:25.864Z,4392.00
2022-10-31T09:28:25.825Z,4352.00
2022-10-31T09:29:25.817Z,4300.00
2022-10-31T09:30:25.807Z,4256.00
2022-10-31T09:31:25.807Z,4232.00
2022-10-31T09:32:25.784Z,4204.00
2022-10-31T09:33:25.765Z,4176.00
2022-10-31T09:34:25.752Z,4136.00
2022-10-31T09:35:25.996Z,4044.00
2022-10-31T09:36:25.747Z,4004.00
2022-10-31T09:37:25.725Z,3968.00
2022-10-31T09:38:25.685Z,3880.00
2022-10-31T09:39:25.689Z,3736.00
2022-10-31T09:40:25.656Z,3692.00
2022-10-31T09:41:25.656Z,3580.00
2022-10-31T09:42:25.654Z,3612.00
2022-10-31T09:43:25.627Z,3556.00
2022-10-31T09:44:25.620Z,3492.00
2022-10-31T09:45:25.596Z,3520.00
2022-10-31T09:46:25.599Z,3524.00
2022-10-31T09:47:25.588Z,3568.00
2022-10-31T09:48:37.577Z,3596.00
2022-10-31T09:49:25.631Z,3596.00
2022-10-31T09:50:25.538Z,3564.00
2022-10-31T09:51:25.528Z,3560.00
2022-10-31T09:52:25.518Z,3512.00
2022-10-31T09:53:25.501Z,3436.00
2022-10-31T09:54:25.488Z,3424.00
2022-10-31T09:55:25.488Z,3416.00
2022-10-31T09:56:25.469Z,3360.00
2022-10-31T09:57:25.451Z,3348.00
2022-10-31T09:58:25.429Z,3344.00
2022-10-31T09:59:25.430Z,3324.00
2022-10-31T10:00:25.408Z,3308.00
2022-10-31T10:01:25.580Z,3300.00
2022-10-31T10:02:25.413Z,3320.00
2022-10-31T10:03:25.383Z,3260.00
2022-10-31T10:04:25.350Z,3188.00
2022-10-31T10:05:25.341Z,3204.00
2022-10-31T10:06:25.332Z,3240.00
2022-10-31T10:07:25.323Z,3216.00
2022-10-31T10:08:25.327Z,3216.00
2022-10-31T10:09:25.561Z,3256.00
2022-10-31T10:10:25.299Z,3216.00
2022-10-31T10:11:25.286Z,3136.00
2022-10-31T10:12:25.508Z,3148.00
2022-10-31T10:13:25.239Z,3112.00
2022-10-31T10:14:25.241Z,3072.00
2022-10-31T10:15:25.213Z,2992.00
2022-10-31T10:16:25.188Z,2880.00
2022-10-31T10:17:25.171Z,2904.00
2022-10-31T10:18:25.187Z,2992.00
2022-10-31T10:19:25.159Z,2984.00
2022-10-31T10:20:25.412Z,2936.00
2022-10-31T10:21:25.154Z,2872.00
2022-10-31T10:22:25.110Z,2952.00
2022-10-31T10:23:25.186Z,2892.00
2022-10-31T10:24:25.115Z,2884.00
2022-10-31T10:25:25.102Z,2896.00
2022-10-31T10:26:25.127Z,2892.00
2022-10-31T10:27:25.053Z,2888.00
2022-10-31T10:28:25.044Z,2860.00
2022-10-31T10:29:25.036Z,2872.00
2022-10-31T10:30:25.295Z,2884.00
2022-10-31T10:31:25.003Z,2876.00
2022-10-31T10:32:24.998Z,2860.00
2022-10-31T10:33:24.975Z,2852.00
2022-10-31T10:34:24.956Z,2788.00
2022-10-31T10:35:24.960Z,2828.00
2022-10-31T10:36:24.945Z,2860.00
2022-10-31T10:37:24.913Z,2832.00
2022-10-31T10:38:24.926Z,2840.00
2022-10-31T10:39:24.888Z,2816.00
2022-10-31T10:40:24.885Z,2772.00
2022-10-31T10:41:24.885Z,2792.00
2022-10-31T10:42:24.850Z,2812.00
2022-10-31T10:43:24.836Z,2828.00
2022-10-31T10:44:24.834Z,2816.00
2022-10-31T10:45:24.817Z,2728.00
2022-10-31T10:46:24.816Z,2732.00
2022-10-31T10:47:24.784Z,2716.00
2022-10-31T10:48:24.817Z,2728.00
2022-10-31T10:49:24.896Z,2752.00
2022-10-31T10:50:24.769Z,2692.00
2022-10-31T10:51:38.834Z,2704.00
2022-10-31T10:52:45.958Z,2616.00
2022-10-31T10:53:25.710Z,2576.00
2022-10-31T10:54:24.689Z,2568.00
2022-10-31T10:55:24.717Z,2548.00
2022-10-31T10:56:24.665Z,2520.00
2022-10-31T10:57:24.647Z,2516.00
2022-10-31T10:58:24.647Z,2500.00
2022-10-31T10:59:24.616Z,2544.00
2022-10-31T11:00:24.644Z,2496.00
2022-10-31T11:01:24.606Z,2508.00
2022-10-31T11:02:24.632Z,2516.00
2022-10-31T11:03:24.569Z,2496.00
2022-10-31T11:04:24.567Z,2460.00
2022-10-31T11:05:24.629Z,2444.00
2022-10-31T11:06:24.538Z,2376.00
2022-10-31T11:07:24.810Z,2340.00
2022-10-31T11:08:27.514Z,2300.00
2022-10-31T11:09:24.496Z,2260.00
2022-10-31T11:10:24.509Z,2284.00
2022-10-31T11:11:24.466Z,2296.00
2022-10-31T11:12:24.498Z,2336.00
2022-10-31T11:13:24.534Z,2356.00
2022-10-31T11:14:24.715Z,2432.00
2022-10-31T11:15:24.438Z,2436.00
2022-10-31T11:16:24.410Z,2436.00
2022-10-31T11:17:24.381Z,2456.00
2022-10-31T11:19:24.351Z,2408.00
2022-10-31T11:20:24.382Z,2436.00
2022-10-31T11:21:24.339Z,2376.00
2022-10-31T11:22:24.317Z,2336.00
2022-10-31T11:23:24.317Z,2220.00
2022-10-31T11:24:24.331Z,2284.00
2022-10-31T11:25:24.289Z,2268.00
2022-10-31T11:26:24.278Z,2324.00
2022-10-31T11:27:24.269Z,2404.00
2022-10-31T11:28:24.281Z,2424.00
2022-10-31T11:29:24.560Z,2340.00
2022-10-31T11:30:24.242Z,2396.00
2022-10-31T11:31:24.192Z,2416.00
2022-10-31T11:32:24.212Z,2372.00
2022-10-31T11:33:24.173Z,2380.00
2022-10-31T11:34:24.182Z,2328.00
2022-10-31T11:35:24.230Z,2372.00
2022-10-31T11:36:24.160Z,2376.00
2022-10-31T11:37:24.122Z,2428.00
2022-10-31T11:38:24.129Z,2412.00
2022-10-31T11:39:24.102Z,2340.00
2022-10-31T11:40:24.101Z,2384.00
2022-10-31T11:41:24.065Z,2396.00
2022-10-31T11:42:24.071Z,2392.00
2022-10-31T11:43:24.061Z,2312.00
2022-10-31T11:44:24.083Z,2160.00
2022-10-31T11:45:24.034Z,2252.00
2022-10-31T11:46:24.018Z,2220.00
2022-10-31T11:47:23.982Z,2248.00
2022-10-31T11:48:23.975Z,2272.00
2022-10-31T11:49:23.953Z,2312.00
2022-10-31T11:50:24.013Z,2332.00
2022-10-31T11:51:23.976Z,2276.00
2022-10-31T11:52:23.923Z,2192.00
2022-10-31T11:53:24.153Z,2272.00
2022-10-31T11:54:23.910Z,2348.00
2022-10-31T11:55:23.909Z,2352.00
2022-10-31T11:56:23.882Z,2272.00
2022-10-31T11:57:23.889Z,2344.00
2022-10-31T11:58:23.847Z,2348.00
2022-10-31T11:59:23.878Z,2300.00
2022-10-31T12:00:23.870Z,2312.00
2022-10-31T12:01:23.845Z,2176.00
2022-10-31T12:02:23.868Z,2156.00
2022-10-31T12:03:23.791Z,2268.00
2022-10-31T12:04:23.766Z,2284.00
2022-10-31T12:05:23.756Z,2264.00
2022-10-31T12:06:23.775Z,2208.00
2022-10-31T12:07:23.748Z,2232.00
2022-10-31T12:08:23.714Z,2184.00
2022-10-31T12:09:23.696Z,2176.00
2022-10-31T12:10:23.695Z,2156.00
2022-10-31T12:11:23.668Z,2108.00
2022-10-31T12:12:23.658Z,2000.00
2022-10-31T12:13:23.648Z,2004.00
2022-10-31T12:14:23.646Z,1996.00
2022-10-31T12:15:23.897Z,2064.00
2022-10-31T12:16:23.604Z,2072.00
2022-10-31T12:17:23.615Z,2084.00
2022-10-31T12:18:23.590Z,2080.00
2022-10-31T12:19:23.569Z,2040.00
2022-10-31T12:20:23.567Z,2052.00
2022-10-31T12:21:23.542Z,1988.00
2022-10-31T12:22:23.529Z,1920.00
2022-10-31T12:23:23.537Z,1916.00
2022-10-31T12:24:23.508Z,1912.00
2022-10-31T12:25:23.489Z,1932.00
2022-10-31T12:26:23.479Z,1876.00
2022-10-31T12:27:23.456Z,1860.00
2022-10-31T12:28:23.453Z,1928.00
2022-10-31T12:29:23.440Z,1972.00
2022-10-31T12:30:23.439Z,1928.00
2022-10-31T12:31:23.430Z,1884.00
2022-10-31T12:32:23.394Z,1936.00
2022-10-31T12:33:23.380Z,1916.00
2022-10-31T12:34:23.365Z,1964.00
2022-10-31T12:35:23.377Z,1912.00
2022-10-31T12:36:23.341Z,1924.00
2022-10-31T12:37:23.327Z,1904.00
2022-10-31T12:38:23.343Z,1888.00